Time;durP1;ratioP1;P1;durP2;ratioP2;P2;SDS_P1;SDS_P2;PMS_P1;PMS_P2;Temp;Humidity;BMP_temperature;BMP_pressure;BME280_temperature;BME280_humidity;BME280_pressure;Samples;Min_cycle;Max_cycle;Signal;HPM_P1;HPM_P2
2023/02/20 00:00:23;;;;;;;;;;;5.30;99.90;;;;;;5084443;28;19969;-60
2023/02/20 00:02:50;;;;;;;;;;;5.30;99.90;;;;;;5088079;28;19920;-61
2023/02/20 00:05:17;;;;;;;;;;;5.30;99.90;;;;;;5084184;28;19973;-58
2023/02/20 00:07:43;;;;;;;;;;;5.20;99.90;;;;;;5089576;28;19927;-61
2023/02/20 00:10:10;;;;;;;;;;;5.30;99.90;;;;;;5086304;28;19973;-61
2023/02/20 00:12:37;;;;;;;;;;;5.40;99.90;;;;;;5092590;28;19981;-61
2023/02/20 00:15:06;;;;;;;;;;;5.40;99.90;;;;;;5087891;28;20383;-61
2023/02/20 00:17:32;;;;;;;;;;;5.40;99.90;;;;;;5087458;28;19988;-61
2023/02/20 00:19:59;;;;;;;;;;;5.50;99.90;;;;;;5084604;28;19989;-61
2023/02/20 00:22:26;;;;;;;;;;;5.50;99.90;;;;;;5087500;28;19920;-60
2023/02/20 00:24:52;;;;;;;;;;;5.40;99.90;;;;;;5082675;28;19990;-61
2023/02/20 00:27:19;;;;;;;;;;;5.40;99.90;;;;;;5084573;28;20437;-62
2023/02/20 00:29:46;;;;;;;;;;;5.40;99.90;;;;;;5083497;28;19927;-61
2023/02/20 00:32:14;;;;;;;;;;;5.50;99.90;;;;;;5087391;28;19920;-62
2023/02/20 00:34:40;;;;;;;;;;;5.50;99.90;;;;;;5084264;28;19921;-61
2023/02/20 00:37:07;;;;;;;;;;;5.60;99.90;;;;;;5087155;28;19924;-61
2023/02/20 00:39:34;;;;;;;;;;;5.60;99.90;;;;;;5084663;28;19926;-61
2023/02/20 00:42:01;;;;;;;;;;;5.70;99.90;;;;;;5091552;28;19924;-61
2023/02/20 00:44:27;;;;;;;;;;;5.60;99.90;;;;;;5083056;28;20336;-62
2023/02/20 00:46:54;;;;;;;;;;;5.60;99.90;;;;;;5085297;28;19928;-63
2023/02/20 00:49:21;;;;;;;;;;;5.60;99.90;;;;;;5085910;28;19923;-61
2023/02/20 00:51:48;;;;;;;;;;;5.60;99.90;;;;;;5085618;28;19981;-60
2023/02/20 00:54:15;;;;;;;;;;;5.60;99.90;;;;;;5089860;28;19924;-60
2023/02/20 00:56:41;;;;;;;;;;;5.60;99.90;;;;;;5088230;28;19973;-61
2023/02/20 00:59:08;;;;;;;;;;;5.70;99.90;;;;;;5081884;28;19921;-61
2023/02/20 01:01:34;;;;;;;;;;;5.70;99.90;;;;;;5086402;28;19924;-61
2023/02/20 01:04:01;;;;;;;;;;;5.60;99.90;;;;;;5084505;28;20329;-61
2023/02/20 01:06:29;;;;;;;;;;;5.70;99.90;;;;;;5086232;28;19920;-62
2023/02/20 01:08:55;;;;;;;;;;;5.70;99.90;;;;;;5081651;28;20440;-61
2023/02/20 01:11:22;;;;;;;;;;;5.60;99.90;;;;;;5088634;28;19966;-62
2023/02/20 01:13:48;;;;;;;;;;;5.70;99.90;;;;;;5089311;28;19923;-61
2023/02/20 01:16:15;;;;;;;;;;;5.70;99.90;;;;;;5083867;28;19974;-60
2023/02/20 01:18:42;;;;;;;;;;;5.70;99.90;;;;;;5085976;28;19920;-62
2023/02/20 01:21:08;;;;;;;;;;;5.60;99.90;;;;;;5083314;28;19920;-62
2023/02/20 01:23:36;;;;;;;;;;;5.70;99.90;;;;;;5085839;28;20386;-61
2023/02/20 01:26:02;;;;;;;;;;;5.70;99.90;;;;;;5085124;28;19974;-61
2023/02/20 01:28:29;;;;;;;;;;;5.60;99.90;;;;;;5083409;28;19920;-62
2023/02/20 01:30:55;;;;;;;;;;;5.60;99.90;;;;;;5085299;28;19973;-62
2023/02/20 01:33:22;;;;;;;;;;;5.70;99.90;;;;;;5085760;28;19924;-60
2023/02/20 01:35:49;;;;;;;;;;;5.60;99.90;;;;;;5086647;28;19966;-60
2023/02/20 01:38:15;;;;;;;;;;;5.70;99.90;;;;;;5084418;28;19965;-60
2023/02/20 01:40:47;;;;;;;;;;;5.60;99.90;;;;;;5085264;28;20374;-60
2023/02/20 01:43:14;;;;;;;;;;;5.70;99.90;;;;;;5085109;28;20382;-60
2023/02/20 01:45:41;;;;;;;;;;;5.60;99.90;;;;;;5080031;28;19920;-60
2023/02/20 01:48:18;;;;;;;;;;;5.60;99.90;;;;;;5084571;28;19920;-60
2023/02/20 01:50:45;;;;;;;;;;;5.60;99.90;;;;;;5082812;28;19925;-60
2023/02/20 01:53:13;;;;;;;;;;;5.60;99.90;;;;;;5085169;28;19973;-60
2023/02/20 01:55:42;;;;;;;;;;;5.60;99.90;;;;;;5085715;28;19924;-60
2023/02/20 01:58:12;;;;;;;;;;;5.60;99.90;;;;;;5079292;28;19920;-60
2023/02/20 02:00:38;;;;;;;;;;;5.50;99.90;;;;;;5083300;28;19924;-60
2023/02/20 02:03:06;;;;;;;;;;;5.60;99.90;;;;;;5080629;28;19920;-60
2023/02/20 02:05:33;;;;;;;;;;;5.60;99.90;;;;;;5083795;28;19920;-60
2023/02/20 02:08:01;;;;;;;;;;;5.60;99.90;;;;;;5083839;28;20159;-60
2023/02/20 02:10:29;;;;;;;;;;;5.60;99.90;;;;;;5085201;28;19946;-60
2023/02/20 02:12:56;;;;;;;;;;;5.60;99.90;;;;;;5083733;28;20389;-60
2023/02/20 02:15:24;;;;;;;;;;;5.60;99.90;;;;;;5085410;28;19920;-60
2023/02/20 02:17:58;;;;;;;;;;;5.60;99.90;;;;;;5081567;28;19920;-59
2023/02/20 02:20:42;;;;;;;;;;;5.60;99.90;;;;;;5082708;28;19950;-60
2023/02/20 02:23:26;;;;;;;;;;;5.60;99.90;;;;;;5081044;28;20344;-59
2023/02/20 02:25:55;;;;;;;;;;;5.70;99.90;;;;;;5084261;28;19966;-59
2023/02/20 02:28:43;;;;;;;;;;;5.70;99.90;;;;;;5083337;28;19920;-60
2023/02/20 02:31:19;;;;;;;;;;;5.80;99.90;;;;;;5087492;28;19924;-58
2023/02/20 02:34:01;;;;;;;;;;;5.90;99.90;;;;;;5076692;28;19920;-60
2023/02/20 02:36:36;;;;;;;;;;;5.90;99.90;;;;;;5079032;28;19973;-60
2023/02/20 02:39:06;;;;;;;;;;;5.90;99.90;;;;;;5072233;28;19920;-59
2023/02/20 02:41:39;;;;;;;;;;;5.80;99.90;;;;;;5087396;28;19924;-60
2023/02/20 02:44:10;;;;;;;;;;;5.70;99.90;;;;;;5087797;28;19920;-60
2023/02/20 02:46:40;;;;;;;;;;;5.80;99.90;;;;;;5080570;28;19949;-60
2023/02/20 02:49:10;;;;;;;;;;;5.80;99.90;;;;;;5082075;28;19920;-60
2023/02/20 02:51:44;;;;;;;;;;;5.90;99.90;;;;;;5085219;28;19920;-60
2023/02/20 02:54:12;;;;;;;;;;;5.90;99.90;;;;;;5083381;28;19993;-60
2023/02/20 02:56:40;;;;;;;;;;;5.80;99.90;;;;;;5082331;28;19920;-60
2023/02/20 02:59:07;;;;;;;;;;;5.80;99.90;;;;;;5082354;28;19966;-60
2023/02/20 03:01:35;;;;;;;;;;;5.90;99.90;;;;;;5080799;28;19966;-60
2023/02/20 03:04:04;;;;;;;;;;;5.90;99.90;;;;;;5083512;28;19965;-60
2023/02/20 03:06:34;;;;;;;;;;;5.90;99.90;;;;;;5084075;28;20432;-60
2023/02/20 03:09:04;;;;;;;;;;;5.90;99.90;;;;;;5081494;28;20463;-60
2023/02/20 03:11:32;;;;;;;;;;;5.90;99.90;;;;;;5086455;28;20332;-60
2023/02/20 03:16:50;;;;;;;;;;;5.80;99.90;;;;;;5083841;28;19943;-59
2023/02/20 03:19:19;;;;;;;;;;;5.80;99.90;;;;;;5081019;28;19925;-60
2023/02/20 03:21:47;;;;;;;;;;;5.70;99.90;;;;;;5085970;28;19984;-60
2023/02/20 03:24:17;;;;;;;;;;;5.80;99.90;;;;;;5079592;28;19920;-59
2023/02/20 03:26:45;;;;;;;;;;;5.80;99.90;;;;;;5083580;28;20530;-60
2023/02/20 03:29:14;;;;;;;;;;;5.70;99.90;;;;;;5082015;28;19920;-60
2023/02/20 03:31:43;;;;;;;;;;;5.70;99.90;;;;;;5082724;28;19920;-60
2023/02/20 03:45:16;;;;;;;;;;;5.90;99.90;;;;;;5081520;28;19965;-60
2023/02/20 03:47:44;;;;;;;;;;;5.90;99.90;;;;;;5083968;28;20353;-60
2023/02/20 03:50:12;;;;;;;;;;;5.90;99.90;;;;;;5071664;28;19927;-60
2023/02/20 03:52:39;;;;;;;;;;;5.80;99.90;;;;;;5081389;28;19920;-59
2023/02/20 03:55:08;;;;;;;;;;;5.80;99.90;;;;;;5079984;28;19920;-60
2023/02/20 03:57:37;;;;;;;;;;;5.70;99.90;;;;;;5082532;28;19928;-60
2023/02/20 04:00:08;;;;;;;;;;;5.80;99.90;;;;;;5083279;28;20382;-60
2023/02/20 04:02:37;;;;;;;;;;;5.80;99.90;;;;;;5089969;28;20437;-60
2023/02/20 04:05:05;;;;;;;;;;;5.80;99.90;;;;;;5087493;28;19974;-60
2023/02/20 04:07:35;;;;;;;;;;;5.70;99.90;;;;;;5087477;28;19920;-60
2023/02/20 04:10:04;;;;;;;;;;;5.80;99.90;;;;;;5084340;28;19928;-60
2023/02/20 04:12:34;;;;;;;;;;;5.80;99.90;;;;;;5092605;28;19920;-60
2023/02/20 04:15:01;;;;;;;;;;;5.70;99.90;;;;;;5087918;28;19920;-60
2023/02/20 04:17:30;;;;;;;;;;;5.70;99.90;;;;;;5085493;28;19920;-60
2023/02/20 04:19:56;;;;;;;;;;;5.70;99.90;;;;;;5086368;28;19921;-60
2023/02/20 04:22:25;;;;;;;;;;;5.70;99.90;;;;;;5088855;28;19927;-60
2023/02/20 04:24:54;;;;;;;;;;;5.70;99.90;;;;;;5085270;28;19924;-60
2023/02/20 04:27:21;;;;;;;;;;;5.70;99.90;;;;;;5083457;28;19973;-60
2023/02/20 04:29:49;;;;;;;;;;;5.70;99.90;;;;;;5083958;28;19924;-60
2023/02/20 04:32:16;;;;;;;;;;;5.70;99.90;;;;;;5083672;28;20323;-60
2023/02/20 04:34:42;;;;;;;;;;;5.70;99.90;;;;;;5083861;28;19982;-60
2023/02/20 04:37:10;;;;;;;;;;;5.70;99.90;;;;;;5083362;28;19977;-59
2023/02/20 04:39:36;;;;;;;;;;;5.70;99.90;;;;;;5089540;28;19928;-59
2023/02/20 04:42:03;;;;;;;;;;;5.60;99.90;;;;;;5092163;28;19986;-60
2023/02/20 04:44:34;;;;;;;;;;;5.70;99.90;;;;;;5090023;28;19920;-60
2023/02/20 04:47:03;;;;;;;;;;;5.70;99.90;;;;;;5085386;28;19924;-60
2023/02/20 04:49:29;;;;;;;;;;;5.70;99.90;;;;;;5085328;28;19920;-60
2023/02/20 04:51:56;;;;;;;;;;;5.70;99.90;;;;;;5086105;28;19949;-60
2023/02/20 04:54:22;;;;;;;;;;;5.70;99.90;;;;;;5086791;28;19920;-59
2023/02/20 04:56:49;;;;;;;;;;;5.70;99.90;;;;;;5085155;28;19920;-60
2023/02/20 04:59:15;;;;;;;;;;;5.70;99.90;;;;;;5086579;28;19981;-60
2023/02/20 05:01:46;;;;;;;;;;;5.80;99.90;;;;;;5082948;28;19920;-60
2023/02/20 05:04:14;;;;;;;;;;;5.80;99.90;;;;;;5083609;28;19925;-60
2023/02/20 05:06:42;;;;;;;;;;;5.90;99.90;;;;;;5082441;28;19920;-60
2023/02/20 05:09:09;;;;;;;;;;;6.00;99.90;;;;;;5088121;28;19920;-60
2023/02/20 05:11:36;;;;;;;;;;;5.90;99.90;;;;;;5088867;28;19952;-60
2023/02/20 05:14:03;;;;;;;;;;;5.90;99.90;;;;;;5088108;28;19974;-60
2023/02/20 05:16:29;;;;;;;;;;;5.90;99.90;;;;;;5083187;28;20386;-60
2023/02/20 05:18:56;;;;;;;;;;;5.80;99.90;;;;;;5088856;28;20349;-60
2023/02/20 05:24:08;;;;;;;;;;;5.70;99.90;;;;;;5087046;28;20053;-60
2023/02/20 05:26:35;;;;;;;;;;;5.80;99.90;;;;;;5085088;28;19924;-60
2023/02/20 05:29:01;;;;;;;;;;;5.70;99.90;;;;;;5085235;28;19920;-59
2023/02/20 05:31:28;;;;;;;;;;;5.70;99.90;;;;;;5086401;28;20048;-60
2023/02/20 05:33:54;;;;;;;;;;;5.80;99.90;;;;;;5082586;28;19923;-60
2023/02/20 05:36:21;;;;;;;;;;;5.80;99.90;;;;;;5081171;28;19924;-59
2023/02/20 05:38:49;;;;;;;;;;;5.70;99.90;;;;;;5084827;28;19924;-60
2023/02/20 05:41:15;;;;;;;;;;;5.80;99.90;;;;;;5089668;28;20382;-60
2023/02/20 05:43:42;;;;;;;;;;;5.80;99.90;;;;;;5084073;28;20340;-60
2023/02/20 05:46:08;;;;;;;;;;;5.80;99.90;;;;;;5081556;28;19965;-60
2023/02/20 05:48:35;;;;;;;;;;;5.70;99.90;;;;;;5085785;28;19920;-62
2023/02/20 05:51:01;;;;;;;;;;;5.80;99.90;;;;;;5082058;28;19985;-59
2023/02/20 05:53:28;;;;;;;;;;;5.70;99.90;;;;;;5082224;28;19920;-60
2023/02/20 05:55:56;;;;;;;;;;;5.70;99.90;;;;;;5082809;28;19947;-60
2023/02/20 05:58:23;;;;;;;;;;;5.70;99.90;;;;;;5085404;28;19920;-60
2023/02/20 06:00:50;;;;;;;;;;;5.70;99.90;;;;;;5083216;28;19974;-60
2023/02/20 06:03:16;;;;;;;;;;;5.70;99.90;;;;;;5088014;28;20380;-60
2023/02/20 06:05:43;;;;;;;;;;;5.70;99.90;;;;;;5081979;28;20330;-60
2023/02/20 06:08:10;;;;;;;;;;;5.60;99.90;;;;;;5085606;28;19920;-59
2023/02/20 06:10:37;;;;;;;;;;;5.70;99.90;;;;;;5084954;28;20348;-60
2023/02/20 06:13:05;;;;;;;;;;;5.70;99.90;;;;;;5088867;28;20436;-60
2023/02/20 06:15:31;;;;;;;;;;;5.70;99.90;;;;;;5085263;28;19920;-60
2023/02/20 06:17:58;;;;;;;;;;;5.50;99.90;;;;;;5077154;28;19947;-59
2023/02/20 06:20:24;;;;;;;;;;;5.60;99.90;;;;;;5085704;28;19920;-60
2023/02/20 06:22:51;;;;;;;;;;;5.70;99.90;;;;;;5084800;28;20383;-59
2023/02/20 06:25:17;;;;;;;;;;;5.70;99.90;;;;;;5079773;28;19924;-60
2023/02/20 06:27:44;;;;;;;;;;;5.70;99.90;;;;;;5083388;28;19920;-59
2023/02/20 06:30:12;;;;;;;;;;;5.60;99.90;;;;;;5081821;28;19920;-59
2023/02/20 06:32:39;;;;;;;;;;;5.60;99.90;;;;;;5081805;28;19966;-60
2023/02/20 06:35:06;;;;;;;;;;;5.70;99.90;;;;;;5084415;28;19920;-61
2023/02/20 06:37:33;;;;;;;;;;;5.60;99.90;;;;;;5082396;28;20367;-60
2023/02/20 06:39:59;;;;;;;;;;;5.70;99.90;;;;;;5086805;28;19919;-60
2023/02/20 06:42:26;;;;;;;;;;;5.80;99.90;;;;;;5087659;28;19923;-60
2023/02/20 06:44:52;;;;;;;;;;;5.80;99.90;;;;;;5084388;28;20432;-60
2023/02/20 06:47:20;;;;;;;;;;;5.80;99.90;;;;;;5084372;28;19974;-59
2023/02/20 06:49:46;;;;;;;;;;;5.80;99.90;;;;;;5082328;28;19977;-60
2023/02/20 06:52:13;;;;;;;;;;;5.80;99.90;;;;;;5079768;28;20431;-60
2023/02/20 06:54:40;;;;;;;;;;;5.80;99.90;;;;;;5081003;28;19924;-60
2023/02/20 06:57:06;;;;;;;;;;;5.90;99.90;;;;;;5081775;28;19999;-60
2023/02/20 06:59:38;;;;;;;;;;;5.80;99.90;;;;;;5084704;28;19920;-59
2023/02/20 07:02:05;;;;;;;;;;;5.80;99.90;;;;;;5083990;28;20006;-60
2023/02/20 07:04:33;;;;;;;;;;;5.80;99.90;;;;;;5082346;28;19924;-60
2023/02/20 07:07:00;;;;;;;;;;;5.70;99.90;;;;;;5082714;28;19924;-61
2023/02/20 07:09:26;;;;;;;;;;;5.70;99.90;;;;;;5084344;28;19942;-61
2023/02/20 07:11:53;;;;;;;;;;;5.70;99.90;;;;;;5087650;28;20406;-60
2023/02/20 07:14:20;;;;;;;;;;;5.80;99.90;;;;;;5086889;28;19920;-60
2023/02/20 07:16:46;;;;;;;;;;;5.70;99.90;;;;;;5080707;28;19966;-61
2023/02/20 07:19:13;;;;;;;;;;;5.60;99.90;;;;;;5082359;28;20294;-60
2023/02/20 07:21:41;;;;;;;;;;;5.60;99.90;;;;;;5083300;28;19920;-61
2023/02/20 07:24:07;;;;;;;;;;;5.60;99.90;;;;;;5081069;28;19925;-61
2023/02/20 07:26:36;;;;;;;;;;;5.60;99.90;;;;;;5080918;28;19920;-60
2023/02/20 07:29:03;;;;;;;;;;;5.60;99.90;;;;;;5083344;28;19926;-61
2023/02/20 07:31:29;;;;;;;;;;;5.60;99.90;;;;;;5079687;28;19924;-61
2023/02/20 07:33:56;;;;;;;;;;;5.60;99.90;;;;;;5083038;28;19924;-61
2023/02/20 07:36:23;;;;;;;;;;;5.70;99.90;;;;;;5083736;28;19966;-60
2023/02/20 07:38:54;;;;;;;;;;;5.70;99.90;;;;;;5085019;28;19928;-60
2023/02/20 07:41:21;;;;;;;;;;;5.80;99.90;;;;;;5088967;28;19969;-61
2023/02/20 07:43:47;;;;;;;;;;;5.70;99.90;;;;;;5087905;28;20375;-62
2023/02/20 07:46:14;;;;;;;;;;;5.70;99.90;;;;;;5086993;28;20326;-62
2023/02/20 07:48:41;;;;;;;;;;;5.70;99.90;;;;;;5085337;28;20413;-62
2023/02/20 07:51:07;;;;;;;;;;;5.70;99.90;;;;;;5083921;28;19970;-61
2023/02/20 07:53:34;;;;;;;;;;;5.80;99.90;;;;;;5084635;28;19927;-62
2023/02/20 07:56:02;;;;;;;;;;;5.80;99.90;;;;;;5084222;28;19920;-61
2023/02/20 07:58:28;;;;;;;;;;;5.90;99.90;;;;;;5084239;28;19920;-62
2023/02/20 08:00:55;;;;;;;;;;;5.90;99.90;;;;;;5085570;28;19919;-61
2023/02/20 08:03:21;;;;;;;;;;;6.00;99.90;;;;;;5086528;28;19919;-62
2023/02/20 08:05:48;;;;;;;;;;;6.00;99.90;;;;;;5084231;28;19920;-61
2023/02/20 08:08:14;;;;;;;;;;;5.90;99.90;;;;;;5084589;28;19982;-61
2023/02/20 08:10:41;;;;;;;;;;;5.90;99.90;;;;;;5087124;28;20371;-60
2023/02/20 08:13:09;;;;;;;;;;;5.90;99.90;;;;;;5089395;28;19974;-60
2023/02/20 08:15:35;;;;;;;;;;;5.90;99.90;;;;;;5083860;28;20033;-60
2023/02/20 08:18:02;;;;;;;;;;;5.90;99.90;;;;;;5085700;28;19924;-60
2023/02/20 08:20:28;;;;;;;;;;;6.00;99.90;;;;;;5085473;28;19920;-61
2023/02/20 08:22:55;;;;;;;;;;;6.00;99.90;;;;;;5083261;28;19978;-62
2023/02/20 08:25:21;;;;;;;;;;;6.00;99.90;;;;;;5085089;28;19924;-62
2023/02/20 08:27:49;;;;;;;;;;;6.00;99.90;;;;;;5083472;28;19921;-62
2023/02/20 08:30:20;;;;;;;;;;;6.10;99.90;;;;;;5084385;28;19975;-61
2023/02/20 08:32:46;;;;;;;;;;;6.00;99.90;;;;;;5083790;28;19920;-62
2023/02/20 08:35:13;;;;;;;;;;;6.00;99.90;;;;;;5074917;28;19920;-62
2023/02/20 08:37:39;;;;;;;;;;;6.00;99.90;;;;;;5074853;28;19925;-61
2023/02/20 08:40:07;;;;;;;;;;;6.00;99.90;;;;;;5074955;28;19920;-61
2023/02/20 08:42:34;;;;;;;;;;;6.20;99.90;;;;;;5083683;28;19965;-62
2023/02/20 08:45:00;;;;;;;;;;;6.20;99.90;;;;;;5086087;28;19946;-61
2023/02/20 08:47:28;;;;;;;;;;;6.20;99.90;;;;;;5073258;28;19924;-62
2023/02/20 08:49:56;;;;;;;;;;;6.20;99.90;;;;;;5073736;28;20210;-62
2023/02/20 08:52:23;;;;;;;;;;;6.30;99.90;;;;;;5074880;28;19932;-61
2023/02/20 08:54:50;;;;;;;;;;;6.20;99.90;;;;;;5074223;28;19928;-62
2023/02/20 08:57:17;;;;;;;;;;;6.30;99.90;;;;;;5074166;28;20268;-61
2023/02/20 08:59:43;;;;;;;;;;;6.30;99.90;;;;;;5081797;28;20462;-61
2023/02/20 09:02:15;;;;;;;;;;;6.20;99.90;;;;;;5085076;28;20411;-61
2023/02/20 09:04:44;;;;;;;;;;;6.20;99.90;;;;;;5083520;28;19924;-61
2023/02/20 09:07:11;;;;;;;;;;;6.20;99.90;;;;;;5083954;28;19924;-61
2023/02/20 09:09:37;;;;;;;;;;;6.20;99.90;;;;;;5085449;28;19981;-61
2023/02/20 09:12:04;;;;;;;;;;;6.20;99.90;;;;;;5088120;28;19928;-60
2023/02/20 09:14:31;;;;;;;;;;;6.20;99.90;;;;;;5088897;28;19933;-61
2023/02/20 09:16:58;;;;;;;;;;;6.20;99.90;;;;;;5083088;28;19924;-61
2023/02/20 09:19:24;;;;;;;;;;;6.20;99.90;;;;;;5083491;28;20308;-61
2023/02/20 09:21:52;;;;;;;;;;;6.20;99.90;;;;;;5085032;28;20382;-61
2023/02/20 09:24:19;;;;;;;;;;;6.30;99.90;;;;;;5081565;28;19924;-61
2023/02/20 09:26:45;;;;;;;;;;;6.40;99.90;;;;;;5084763;28;20333;-62
2023/02/20 09:29:12;;;;;;;;;;;6.30;99.90;;;;;;5083305;28;19924;-62
2023/02/20 09:31:38;;;;;;;;;;;6.40;99.90;;;;;;5082222;28;19950;-62
2023/02/20 09:34:05;;;;;;;;;;;6.50;99.90;;;;;;5082835;28;19932;-62
2023/02/20 09:36:31;;;;;;;;;;;6.60;99.90;;;;;;5083492;28;19969;-62
2023/02/20 09:38:59;;;;;;;;;;;6.60;99.90;;;;;;5085093;28;19930;-62
2023/02/20 09:41:29;;;;;;;;;;;6.40;99.90;;;;;;5087917;28;19928;-62
2023/02/20 09:43:59;;;;;;;;;;;6.40;99.90;;;;;;5090691;28;19924;-62
2023/02/20 09:46:26;;;;;;;;;;;6.40;99.90;;;;;;5084820;28;19928;-62
2023/02/20 09:49:00;;;;;;;;;;;6.50;99.90;;;;;;5084956;28;19924;-62
2023/02/20 09:51:28;;;;;;;;;;;6.50;99.90;;;;;;5084610;28;19931;-62
2023/02/20 09:53:56;;;;;;;;;;;6.60;99.90;;;;;;5083563;28;19924;-63
2023/02/20 09:56:26;;;;;;;;;;;6.60;99.90;;;;;;5082387;28;20303;-62
2023/02/20 09:58:58;;;;;;;;;;;6.60;99.90;;;;;;5082066;28;20299;-63
2023/02/20 10:01:25;;;;;;;;;;;6.60;99.90;;;;;;5085140;28;19973;-60
2023/02/20 10:03:54;;;;;;;;;;;6.60;99.90;;;;;;5084774;28;19978;-63
2023/02/20 10:06:22;;;;;;;;;;;6.60;99.90;;;;;;5072883;28;19928;-60
2023/02/20 10:08:49;;;;;;;;;;;6.60;99.90;;;;;;5072816;28;19928;-60
2023/02/20 10:11:21;;;;;;;;;;;6.50;99.90;;;;;;5081048;28;19924;-60
2023/02/20 10:13:54;;;;;;;;;;;6.50;99.90;;;;;;5085027;28;20353;-60
2023/02/20 10:16:27;;;;;;;;;;;6.60;99.90;;;;;;5072655;28;19978;-61
2023/02/20 10:18:58;;;;;;;;;;;6.60;99.90;;;;;;5072786;28;20465;-60
2023/02/20 10:21:33;;;;;;;;;;;6.60;99.90;;;;;;5073220;28;19928;-61
2023/02/20 10:24:14;;;;;;;;;;;6.60;99.90;;;;;;5081894;28;19997;-60
2023/02/20 10:26:45;;;;;;;;;;;6.70;99.90;;;;;;5080976;28;19924;-61
2023/02/20 10:29:17;;;;;;;;;;;6.60;99.90;;;;;;5081979;28;19924;-61
2023/02/20 10:31:46;;;;;;;;;;;6.70;99.90;;;;;;5072340;28;19924;-61
2023/02/20 10:34:17;;;;;;;;;;;6.70;99.90;;;;;;5072169;28;19990;-61
2023/02/20 10:36:45;;;;;;;;;;;6.80;99.90;;;;;;5081889;28;19928;-61
2023/02/20 10:39:13;;;;;;;;;;;6.90;99.90;;;;;;5081203;28;20372;-61
2023/02/20 10:41:42;;;;;;;;;;;6.80;99.90;;;;;;5087224;28;19928;-61
2023/02/20 10:44:14;;;;;;;;;;;6.90;99.90;;;;;;5084697;28;19934;-61
2023/02/20 10:46:45;;;;;;;;;;;6.90;99.90;;;;;;5081401;28;19932;-62
2023/02/20 10:49:15;;;;;;;;;;;7.00;99.90;;;;;;5081217;28;20080;-62
2023/02/20 10:51:43;;;;;;;;;;;7.10;99.90;;;;;;5082900;28;19947;-62
2023/02/20 10:54:11;;;;;;;;;;;7.20;99.90;;;;;;5083373;28;20398;-61
2023/02/20 10:56:39;;;;;;;;;;;7.20;99.90;;;;;;5081266;28;19986;-62
2023/02/20 10:59:08;;;;;;;;;;;7.30;99.90;;;;;;5081454;28;19925;-62
2023/02/20 11:01:36;;;;;;;;;;;7.50;99.90;;;;;;5072002;28;19928;-63
2023/02/20 11:04:08;;;;;;;;;;;7.60;99.90;;;;;;5072222;28;20005;-61
2023/02/20 11:06:36;;;;;;;;;;;7.60;99.90;;;;;;5072828;28;20379;-62
2023/02/20 11:09:03;;;;;;;;;;;7.70;99.90;;;;;;5081282;28;19947;-61
2023/02/20 11:11:31;;;;;;;;;;;7.80;99.90;;;;;;5086595;28;19924;-63
2023/02/20 11:13:58;;;;;;;;;;;7.70;99.90;;;;;;5083619;28;19928;-62
2023/02/20 11:16:27;;;;;;;;;;;7.60;99.90;;;;;;5083220;28;19977;-62
2023/02/20 11:18:56;;;;;;;;;;;7.50;99.90;;;;;;5081358;28;20445;-61
2023/02/20 11:21:38;;;;;;;;;;;7.60;99.90;;;;;;5080537;28;19925;-62
2023/02/20 11:24:27;;;;;;;;;;;7.70;99.90;;;;;;5080664;28;19942;-62
2023/02/20 11:26:55;;;;;;;;;;;7.70;99.90;;;;;;5080537;28;19974;-61
2023/02/20 11:29:23;;;;;;;;;;;7.70;99.90;;;;;;5081708;28;19924;-62
2023/02/20 11:31:50;;;;;;;;;;;7.80;99.90;;;;;;5083145;28;19924;-62
2023/02/20 11:34:18;;;;;;;;;;;7.90;99.90;;;;;;5081457;28;19924;-62
2023/02/20 11:36:47;;;;;;;;;;;7.90;99.90;;;;;;5083791;28;19924;-62
2023/02/20 11:39:21;;;;;;;;;;;7.90;99.90;;;;;;5071795;28;19993;-62
2023/02/20 11:41:50;;;;;;;;;;;7.90;99.90;;;;;;5081620;28;19925;-61
2023/02/20 11:44:24;;;;;;;;;;;7.90;99.90;;;;;;5084050;28;19925;-61
2023/02/20 11:47:11;;;;;;;;;;;7.90;99.90;;;;;;5080420;28;19929;-62
2023/02/20 11:49:37;;;;;;;;;;;8.00;99.90;;;;;;5080679;28;19928;-62
2023/02/20 11:52:10;;;;;;;;;;;8.10;99.90;;;;;;5081322;28;19935;-62
2023/02/20 11:54:36;;;;;;;;;;;8.20;99.90;;;;;;5071768;28;19963;-62
2023/02/20 11:57:05;;;;;;;;;;;8.20;99.90;;;;;;5071171;28;20399;-62
2023/02/20 11:59:34;;;;;;;;;;;8.10;99.90;;;;;;5071220;28;19924;-60
2023/02/20 12:02:21;;;;;;;;;;;8.10;99.90;;;;;;5071583;28;20445;-62
2023/02/20 12:05:00;;;;;;;;;;;8.10;99.90;;;;;;5079110;28;20411;-62
2023/02/20 12:07:32;;;;;;;;;;;7.90;99.90;;;;;;5071355;28;19951;-62
2023/02/20 12:10:01;;;;;;;;;;;7.80;99.90;;;;;;5071648;28;20110;-62
2023/02/20 12:12:29;;;;;;;;;;;7.80;99.90;;;;;;5088886;28;19981;-61
2023/02/20 12:14:55;;;;;;;;;;;7.70;99.90;;;;;;5082189;28;19970;-61
2023/02/20 12:17:27;;;;;;;;;;;7.80;99.90;;;;;;5081486;28;19924;-62
2023/02/20 12:19:56;;;;;;;;;;;7.80;99.90;;;;;;5085458;28;20004;-68
2023/02/20 12:22:29;;;;;;;;;;;7.90;99.90;;;;;;5087123;28;20345;-64
2023/02/20 12:25:03;;;;;;;;;;;8.00;99.90;;;;;;5088478;28;19947;-64
2023/02/20 12:27:35;;;;;;;;;;;8.00;99.90;;;;;;5092537;28;20065;-64
2023/02/20 12:30:06;;;;;;;;;;;7.90;99.90;;;;;;5081671;28;20018;-63
2023/02/20 12:32:38;;;;;;;;;;;7.90;99.90;;;;;;5089856;28;20398;-62
2023/02/20 12:35:24;;;;;;;;;;;7.90;99.90;;;;;;5088545;28;19924;-60
2023/02/20 12:37:56;;;;;;;;;;;7.60;99.90;;;;;;5087868;28;19935;-60
2023/02/20 12:40:30;;;;;;;;;;;7.60;99.90;;;;;;5087768;28;19969;-59
2023/02/20 12:43:03;;;;;;;;;;;7.60;99.90;;;;;;5086185;28;19925;-59
2023/02/20 12:45:35;;;;;;;;;;;7.50;99.90;;;;;;5085626;28;19969;-59
2023/02/20 12:48:10;;;;;;;;;;;7.50;99.90;;;;;;5079727;28;19951;-60
2023/02/20 12:50:40;;;;;;;;;;;7.60;99.90;;;;;;5085669;28;19931;-60
2023/02/20 12:53:12;;;;;;;;;;;7.50;99.90;;;;;;5080809;28;19931;-60
2023/02/20 12:55:46;;;;;;;;;;;7.50;99.90;;;;;;5091561;28;19932;-61
2023/02/20 12:58:24;;;;;;;;;;;7.50;99.90;;;;;;5084728;28;19928;-62
2023/02/20 13:00:52;;;;;;;;;;;7.50;99.90;;;;;;5080993;28;19924;-61
2023/02/20 13:03:20;;;;;;;;;;;7.50;99.90;;;;;;5087733;28;19924;-61
2023/02/20 13:05:48;;;;;;;;;;;7.50;99.90;;;;;;5082248;28;19971;-61
2023/02/20 13:08:15;;;;;;;;;;;7.50;99.90;;;;;;5087909;28;19930;-61
2023/02/20 13:10:48;;;;;;;;;;;7.50;99.90;;;;;;5090057;28;19932;-60
2023/02/20 13:13:15;;;;;;;;;;;7.50;99.90;;;;;;5085427;28;20370;-62
2023/02/20 13:15:45;;;;;;;;;;;7.40;99.90;;;;;;5085419;28;20029;-60
2023/02/20 13:18:19;;;;;;;;;;;7.40;99.90;;;;;;5080659;28;19924;-60
2023/02/20 13:20:47;;;;;;;;;;;7.40;99.90;;;;;;5082279;28;19924;-62
2023/02/20 13:23:32;;;;;;;;;;;7.30;99.90;;;;;;5085183;28;20383;-62
2023/02/20 13:25:59;;;;;;;;;;;7.50;99.90;;;;;;5082099;28;19950;-63
2023/02/20 13:28:41;;;;;;;;;;;7.50;99.90;;;;;;5085818;28;20392;-61
2023/02/20 13:31:10;;;;;;;;;;;7.50;99.90;;;;;;5085340;28;20385;-63
2023/02/20 13:33:37;;;;;;;;;;;7.60;99.90;;;;;;5084905;28;19932;-62
2023/02/20 13:36:04;;;;;;;;;;;7.70;99.90;;;;;;5081762;28;19947;-62
2023/02/20 13:38:31;;;;;;;;;;;7.60;99.90;;;;;;5084475;28;19928;-62
2023/02/20 13:41:05;;;;;;;;;;;7.60;99.90;;;;;;5084628;28;20051;-61
2023/02/20 13:43:32;;;;;;;;;;;7.70;99.90;;;;;;5088344;28;19971;-62
2023/02/20 13:46:11;;;;;;;;;;;7.70;99.90;;;;;;5084251;28;20424;-63
2023/02/20 13:48:39;;;;;;;;;;;7.60;99.90;;;;;;5086651;28;20371;-63
2023/02/20 13:51:24;;;;;;;;;;;7.70;99.90;;;;;;5076510;28;20379;-63
2023/02/20 13:53:52;;;;;;;;;;;7.70;99.90;;;;;;5089025;28;20010;-64
2023/02/20 13:56:21;;;;;;;;;;;7.70;99.90;;;;;;5089617;28;20019;-64
2023/02/20 13:58:48;;;;;;;;;;;7.70;99.90;;;;;;5083872;28;19978;-63
2023/02/20 14:01:15;;;;;;;;;;;7.70;99.90;;;;;;5082341;28;19925;-63
2023/02/20 14:03:41;;;;;;;;;;;7.80;99.90;;;;;;5086721;28;19932;-62
2023/02/20 14:06:09;;;;;;;;;;;7.80;99.90;;;;;;5081335;28;19981;-60
2023/02/20 14:08:37;;;;;;;;;;;7.90;99.90;;;;;;5081612;28;19928;-59
2023/02/20 14:11:05;;;;;;;;;;;7.80;99.90;;;;;;5086174;28;19930;-64
2023/02/20 14:13:33;;;;;;;;;;;8.00;99.90;;;;;;5087310;28;20296;-60
2023/02/20 14:16:00;;;;;;;;;;;7.90;99.90;;;;;;5081263;28;19924;-61
2023/02/20 14:18:28;;;;;;;;;;;7.90;99.90;;;;;;5085139;28;19945;-61
2023/02/20 14:20:56;;;;;;;;;;;7.90;99.90;;;;;;5084368;28;19925;-60
2023/02/20 14:23:25;;;;;;;;;;;7.80;99.90;;;;;;5084408;28;19924;-61
2023/02/20 14:25:52;;;;;;;;;;;7.80;99.90;;;;;;5084816;28;19924;-62
2023/02/20 14:28:19;;;;;;;;;;;7.80;99.90;;;;;;5082687;28;19924;-62
2023/02/20 14:30:47;;;;;;;;;;;7.80;99.90;;;;;;5085710;28;19924;-62
2023/02/20 14:33:21;;;;;;;;;;;7.90;99.90;;;;;;5084613;28;20333;-61
2023/02/20 14:35:53;;;;;;;;;;;7.90;99.90;;;;;;5084114;28;19924;-62
2023/02/20 14:38:25;;;;;;;;;;;7.90;99.90;;;;;;5078655;28;19985;-61
2023/02/20 14:40:52;;;;;;;;;;;7.90;99.90;;;;;;5085004;28;20390;-64
2023/02/20 14:43:19;;;;;;;;;;;7.80;99.90;;;;;;5089087;28;20371;-61
2023/02/20 14:45:59;;;;;;;;;;;7.80;99.90;;;;;;5086695;28;19924;-64
2023/02/20 14:48:26;;;;;;;;;;;7.90;99.90;;;;;;5086827;28;19928;-64
2023/02/20 14:51:03;;;;;;;;;;;7.80;99.90;;;;;;5086449;28;19924;-63
2023/02/20 14:53:29;;;;;;;;;;;7.80;99.90;;;;;;5086638;28;19967;-61
2023/02/20 14:55:56;;;;;;;;;;;7.70;99.90;;;;;;5085201;28;19929;-60